createdAt,value
2022-08-01T00:07:53.447Z,98010
2022-08-01T00:19:53.771Z,98010
2022-08-01T00:31:53.684Z,98010
2022-08-01T00:43:53.657Z,98010
2022-08-01T00:55:53.551Z,98010
2022-08-01T01:07:53.931Z,98010
2022-08-01T01:19:53.830Z,98020
2022-08-01T01:31:53.800Z,98010
2022-08-01T01:43:53.756Z,98010
2022-08-01T01:55:53.834Z,98010
2022-08-01T02:07:53.677Z,98000
2022-08-01T02:19:53.772Z,98010
2022-08-01T02:31:54.234Z,98020
2022-08-01T02:43:54.164Z,98020
2022-08-01T02:55:53.815Z,98020
2022-08-01T03:07:53.874Z,98020
2022-08-01T03:19:53.926Z,98020
2022-08-01T03:31:53.510Z,98030
2022-08-01T03:43:53.673Z,98030
2022-08-01T03:55:53.494Z,98030
2022-08-01T04:07:53.472Z,98030
2022-08-01T04:19:53.520Z,98040
2022-08-01T04:31:53.459Z,98050
2022-08-01T04:43:53.452Z,98060
2022-08-01T04:55:53.478Z,98070
2022-08-01T05:07:53.617Z,98070
2022-08-01T05:19:53.817Z,98070
2022-08-01T05:31:54.146Z,98080
2022-08-01T05:43:53.736Z,98070
2022-08-01T05:55:53.599Z,98080
2022-08-01T06:07:53.700Z,98090
2022-08-01T06:19:53.421Z,98100
2022-08-01T06:31:54.433Z,98120
2022-08-01T06:43:53.473Z,98120
2022-08-01T06:55:53.460Z,98120
2022-08-01T07:07:53.446Z,98110
2022-08-01T07:19:53.477Z,98110
2022-08-01T07:31:53.486Z,98110
2022-08-01T07:43:58.004Z,98110
2022-08-01T07:55:53.467Z,98110
2022-08-01T08:07:53.481Z,98100
2022-08-01T08:19:53.472Z,98110
2022-08-01T08:31:53.467Z,98110
2022-08-01T08:43:53.448Z,98110
2022-08-01T08:55:55.479Z,98110
2022-08-01T09:07:53.455Z,98100
2022-08-01T09:19:54.624Z,98100
2022-08-01T09:31:53.461Z,98110
2022-08-01T09:43:53.433Z,98100
2022-08-01T09:55:53.460Z,98100
2022-08-01T10:07:53.466Z,98120
2022-08-01T10:19:53.458Z,98110
2022-08-01T10:31:53.451Z,98090
2022-08-01T10:43:53.450Z,98090
2022-08-01T10:55:53.500Z,98090
2022-08-01T11:07:53.454Z,98050
2022-08-01T11:19:53.445Z,98080
2022-08-01T11:31:53.460Z,98080
2022-08-01T11:43:53.446Z,98080
2022-08-01T11:55:53.460Z,98060
2022-08-01T12:07:53.456Z,98060
2022-08-01T12:19:53.479Z,98060
2022-08-01T12:31:53.457Z,98070
2022-08-01T12:43:54.055Z,98060
2022-08-01T12:55:59.170Z,98060
2022-08-01T13:07:53.468Z,98070
2022-08-01T13:19:58.701Z,98070
2022-08-01T13:31:53.462Z,98060
2022-08-01T13:43:58.919Z,98070
2022-08-01T13:55:53.454Z,98070
2022-08-01T14:07:56.551Z,98070
2022-08-01T14:19:53.466Z,98070
2022-08-01T14:31:53.454Z,98070
2022-08-01T14:43:53.450Z,98080
2022-08-01T14:55:53.454Z,98090
2022-08-01T15:07:53.704Z,98080
2022-08-01T15:19:53.478Z,98070
2022-08-01T15:31:53.452Z,98090
2022-08-01T15:43:55.696Z,98100
2022-08-01T15:55:53.408Z,98090
2022-08-01T16:07:59.516Z,98080
2022-08-01T16:19:53.577Z,98070
2022-08-01T16:31:59.058Z,98090
2022-08-01T16:43:54.758Z,98090
2022-08-01T16:55:53.445Z,98090
2022-08-01T17:07:53.500Z,98090
2022-08-01T17:19:53.521Z,98070
2022-08-01T17:31:53.888Z,98080
2022-08-01T17:43:53.433Z,98090
2022-08-01T17:55:56.598Z,98090
2022-08-01T18:08:01.197Z,98110
2022-08-01T18:19:53.472Z,98110
2022-08-01T18:31:53.900Z,98100
2022-08-01T18:43:53.448Z,98110
2022-08-01T18:55:53.460Z,98130
2022-08-01T19:08:06.501Z,98140
2022-08-01T19:19:53.527Z,98160
2022-08-01T19:31:53.470Z,98180
2022-08-01T19:43:53.462Z,98190
2022-08-01T19:55:53.480Z,98200
2022-08-01T20:07:53.447Z,98210
2022-08-01T20:19:53.483Z,98220
2022-08-01T20:31:53.458Z,98230
2022-08-01T20:43:53.471Z,98240
2022-08-01T20:55:53.463Z,98240
2022-08-01T21:07:53.452Z,98250
2022-08-01T21:19:53.440Z,98260
2022-08-01T21:31:53.447Z,98270
2022-08-01T21:43:53.448Z,98260
2022-08-01T21:55:53.479Z,98260
2022-08-01T22:07:53.436Z,98270
2022-08-01T22:19:53.862Z,98270
2022-08-01T22:31:53.410Z,98270
2022-08-01T22:43:53.445Z,98270
2022-08-01T22:55:58.254Z,98270
2022-08-01T23:07:53.443Z,98290
2022-08-01T23:19:53.949Z,98300
2022-08-01T23:32:06.212Z,98300
2022-08-01T23:43:53.488Z,98300
2022-08-01T23:55:53.423Z,98290
